Gulbeniz A — TCZK8 — position and weather

sailwx.info

Track history (hours):
 
Tides and Currents Weather Stations Pressure Air Temp Water Temp Dewpoint Dewpoint Depression Visibility Wind Speed Wind Dir Waves Ship Positions

Gulbeniz A

Last reported at 2015-Aug-26 02:33 UTC. Time now 2015-Sep-05 14:21 UTC.
Position N 33°59' W 008°31'.
Warning: this ship's position is 10 days out of date.

Length 210 m; draft 10.3 m.

Type: Ship (hazmat cat A). MMSI: 271042493.

Date/timePositionNaut miles runAvg speedWind from/ knotsBaromVisibWave heightAir tempDewpointWater temp
2015-Aug-26 02:33N 33°59' W 008°31'2914.5
2015-Aug-26 00:33N 34°18' W 008°05'7514.3
2015-Aug-25 19:19N 35°10' W 006°59'  
2015-Aug-22 21:16N 36°25' W 002°19'7311.7
2015-Aug-22 15:04N 37°10' W 001°08'611.3
2015-Aug-22 14:33N 37°14' W 001°03'1111.2
2015-Aug-22 13:32N 37°21' W 000°52'1211.7
2015-Aug-22 12:33N 37°29' W 000°41'1211.7
2015-Aug-22 11:33N 37°37' W 000°31'1212.3
2015-Aug-22 10:33N 37°48' W 000°22'1211.8
2015-Aug-22 09:33N 37°58' W 000°14'2712.1
2015-Aug-22 07:20N 38°20' E 000°04'911.7
2015-Aug-22 06:33N 38°28' E 000°11'60 9.9
2015-Aug-22 00:33N 39°24' W 000°14'5 4.9
2015-Aug-21 23:33N 39°27' W 000°19'0 0.0
2015-Aug-21 22:33N 39°27' W 000°19'0 0.0
2015-Aug-21 21:33N 39°27' W 000°19'0 0.0
2015-Aug-21 20:33N 39°27' W 000°19'0 0.0
2015-Aug-21 19:33N 39°27' W 000°19'0 0.0
2015-Aug-21 18:33N 39°27' W 000°19'0 0.0
2015-Aug-21 17:33N 39°27' W 000°19'0 0.0
2015-Aug-21 16:33N 39°27' W 000°19'0 0.0
2015-Aug-21 15:33N 39°27' W 000°19'0 0.0
2015-Aug-21 14:33N 39°27' W 000°19'0 0.0
2015-Aug-21 13:24N 39°27' W 000°19'0 0.0
2015-Aug-21 12:33N 39°27' W 000°19'0 0.0
2015-Aug-21 11:27N 39°27' W 000°19'0 0.0
2015-Aug-21 10:33N 39°27' W 000°19'0 0.0
2015-Aug-21 09:30N 39°27' W 000°19'0 0.0
2015-Aug-21 08:33N 39°27' W 000°19'0 0.0
2015-Aug-21 07:27N 39°27' W 000°19'0 0.0
2015-Aug-21 06:21N 39°27' W 000°19'0 0.0
2015-Aug-21 05:30N 39°27' W 000°19'0 0.0
2015-Aug-21 04:33N 39°27' W 000°19'0 0.0
2015-Aug-21 03:33N 39°27' W 000°19'0 0.0
2015-Aug-21 02:33N 39°27' W 000°19'0 0.0
2015-Aug-21 01:33N 39°27' W 000°19'0 0.0
2015-Aug-21 00:33N 39°27' W 000°19'0 0.0
2015-Aug-20 23:33N 39°27' W 000°19'0 0.0
2015-Aug-20 22:33N 39°27' W 000°19'0 0.0
2015-Aug-20 21:33N 39°27' W 000°19'0 0.0
2015-Aug-20 20:33N 39°27' W 000°19'0 0.0
2015-Aug-20 19:33N 39°27' W 000°19'0 0.0
2015-Aug-20 18:33N 39°27' W 000°19'0 0.0
2015-Aug-20 17:33N 39°27' W 000°19'0 0.0
2015-Aug-20 16:33N 39°27' W 000°19'0 0.0
2015-Aug-20 15:33N 39°27' W 000°19'0 0.0
2015-Aug-20 14:33N 39°27' W 000°19'0 0.0
2015-Aug-20 13:33N 39°27' W 000°19'0 0.0
2015-Aug-20 12:33N 39°27' W 000°19'0 0.0
2015-Aug-20 11:33N 39°27' W 000°19'4 3.5
2015-Aug-20 10:32N 39°25' W 000°16'1 0.1
2015-Aug-19 20:23N 39°24' W 000°15'4 4.7
2015-Aug-19 19:33N 39°27' W 000°13'1311.5
2015-Aug-19 18:28N 39°37' W 000°03'79 4.7
2015-Aug-19 01:32N 40°37' E 001°05'1313.0
2015-Aug-19 00:32N 40°24' E 001°01'1312.8
2015-Aug-18 23:33N 40°12' E 000°58'16112.4
2015-Aug-18 10:33N 37°44' W 000°22'1312.5
2015-Aug-18 09:32N 37°33' W 000°31'1313.1
2015-Aug-18 08:33N 37°25' W 000°43'1312.6
2015-Aug-18 07:33N 37°16' W 000°55'13311.7
2015-Aug-17 20:11N 36°14' W 003°22'4012.7
2015-Aug-17 17:04N 36°08' W 004°10'  
Track history (hours):
 
Tides and Currents Weather Stations Pressure Air Temp Water Temp Dewpoint Dewpoint Depression Visibility Wind Speed Wind Dir Waves Ship Positions

Gulbeniz A

Last reported at 2015-Aug-26 02:33 UTC. Time now 2015-Sep-05 14:21 UTC.
Position N 33°59' W 008°31'.
Warning: this ship's position is 10 days out of date.

Length 210 m; draft 10.3 m.

Type: Ship (hazmat cat A). MMSI: 271042493.

Date/timePositionNaut miles runAvg speedWind from/ knotsBaromVisibWave heightAir tempDewpointWater temp
2015-Aug-26 02:33N 33°59' W 008°31'2914.5
2015-Aug-26 00:33N 34°18' W 008°05'7514.3
2015-Aug-25 19:19N 35°10' W 006°59'  
2015-Aug-22 21:16N 36°25' W 002°19'7311.7
2015-Aug-22 15:04N 37°10' W 001°08'611.3
2015-Aug-22 14:33N 37°14' W 001°03'1111.2
2015-Aug-22 13:32N 37°21' W 000°52'1211.7
2015-Aug-22 12:33N 37°29' W 000°41'1211.7
2015-Aug-22 11:33N 37°37' W 000°31'1212.3
2015-Aug-22 10:33N 37°48' W 000°22'1211.8
2015-Aug-22 09:33N 37°58' W 000°14'2712.1
2015-Aug-22 07:20N 38°20' E 000°04'911.7
2015-Aug-22 06:33N 38°28' E 000°11'60 9.9
2015-Aug-22 00:33N 39°24' W 000°14'5 4.9
2015-Aug-21 23:33N 39°27' W 000°19'0 0.0
2015-Aug-21 22:33N 39°27' W 000°19'0 0.0
2015-Aug-21 21:33N 39°27' W 000°19'0 0.0
2015-Aug-21 20:33N 39°27' W 000°19'0 0.0
2015-Aug-21 19:33N 39°27' W 000°19'0 0.0
2015-Aug-21 18:33N 39°27' W 000°19'0 0.0
2015-Aug-21 17:33N 39°27' W 000°19'0 0.0
2015-Aug-21 16:33N 39°27' W 000°19'0 0.0
2015-Aug-21 15:33N 39°27' W 000°19'0 0.0
2015-Aug-21 14:33N 39°27' W 000°19'0 0.0
2015-Aug-21 13:24N 39°27' W 000°19'0 0.0
2015-Aug-21 12:33N 39°27' W 000°19'0 0.0
2015-Aug-21 11:27N 39°27' W 000°19'0 0.0
2015-Aug-21 10:33N 39°27' W 000°19'0 0.0
2015-Aug-21 09:30N 39°27' W 000°19'0 0.0
2015-Aug-21 08:33N 39°27' W 000°19'0 0.0
2015-Aug-21 07:27N 39°27' W 000°19'0 0.0
2015-Aug-21 06:21N 39°27' W 000°19'0 0.0
2015-Aug-21 05:30N 39°27' W 000°19'0 0.0
2015-Aug-21 04:33N 39°27' W 000°19'0 0.0
2015-Aug-21 03:33N 39°27' W 000°19'0 0.0
2015-Aug-21 02:33N 39°27' W 000°19'0 0.0
2015-Aug-21 01:33N 39°27' W 000°19'0 0.0
2015-Aug-21 00:33N 39°27' W 000°19'0 0.0
2015-Aug-20 23:33N 39°27' W 000°19'0 0.0
2015-Aug-20 22:33N 39°27' W 000°19'0 0.0
2015-Aug-20 21:33N 39°27' W 000°19'0 0.0
2015-Aug-20 20:33N 39°27' W 000°19'0 0.0
2015-Aug-20 19:33N 39°27' W 000°19'0 0.0
2015-Aug-20 18:33N 39°27' W 000°19'0 0.0
2015-Aug-20 17:33N 39°27' W 000°19'0 0.0
2015-Aug-20 16:33N 39°27' W 000°19'0 0.0
2015-Aug-20 15:33N 39°27' W 000°19'0 0.0
2015-Aug-20 14:33N 39°27' W 000°19'0 0.0
2015-Aug-20 13:33N 39°27' W 000°19'0 0.0
2015-Aug-20 12:33N 39°27' W 000°19'0 0.0
2015-Aug-20 11:33N 39°27' W 000°19'4 3.5
2015-Aug-20 10:32N 39°25' W 000°16'1 0.1
2015-Aug-19 20:23N 39°24' W 000°15'4 4.7
2015-Aug-19 19:33N 39°27' W 000°13'1311.5
2015-Aug-19 18:28N 39°37' W 000°03'79 4.7
2015-Aug-19 01:32N 40°37' E 001°05'1313.0
2015-Aug-19 00:32N 40°24' E 001°01'1312.8
2015-Aug-18 23:33N 40°12' E 000°58'16112.4
2015-Aug-18 10:33N 37°44' W 000°22'1312.5
2015-Aug-18 09:32N 37°33' W 000°31'1313.1
2015-Aug-18 08:33N 37°25' W 000°43'1312.6
2015-Aug-18 07:33N 37°16' W 000°55'13311.7
2015-Aug-17 20:11N 36°14' W 003°22'4012.7
2015-Aug-17 17:04N 36°08' W 004°10'  

Dump ship's entire track history